Time;durP1;ratioP1;P1;durP2;ratioP2;P2;SDS_P1;SDS_P2;PMS_P1;PMS_P2;Temp;Humidity;BMP_temperature;BMP_pressure;BME280_temperature;BME280_humidity;BME280_pressure;Samples;Min_cycle;Max_cycle;Signal;HPM_P1;HPM_P2
2023/11/13 00:00:16;;;;;;;34.92;16.02;;;;;;;3.45;100.00;100768.00;6077756;19;20530;-72
2023/11/13 00:02:22;;;;;;;46.30;19.25;;;;;;;3.54;100.00;100764.44;6075653;19;21282;-72
2023/11/13 00:04:30;;;;;;;37.30;16.13;;;;;;;3.52;100.00;100759.22;6078506;19;20015;-72
2023/11/13 00:06:35;;;;;;;38.58;16.88;;;;;;;3.64;100.00;100754.78;6079307;19;20062;-71
2023/11/13 00:08:43;;;;;;;42.47;18.50;;;;;;;3.70;100.00;100744.28;6080208;19;20058;-72
2023/11/13 00:10:48;;;;;;;42.25;16.98;;;;;;;3.73;100.00;100724.31;6082014;19;20025;-73
2023/11/13 00:12:53;;;;;;;45.22;19.80;;;;;;;3.81;100.00;100708.59;6085735;19;20034;-75
2023/11/13 00:15:00;;;;;;;42.42;18.52;;;;;;;3.79;100.00;100704.31;6083149;19;20017;-73
2023/11/13 00:17:05;;;;;;;46.13;18.70;;;;;;;3.81;100.00;100706.00;6084205;19;20034;-73
2023/11/13 00:19:11;;;;;;;36.70;16.98;;;;;;;3.85;100.00;100706.84;6087183;19;20003;-75
2023/11/13 00:21:16;;;;;;;46.30;18.30;;;;;;;3.84;100.00;100713.75;6080361;19;20013;-73
2023/11/13 00:23:19;;;;;;;42.30;17.27;;;;;;;3.83;100.00;100714.66;6081974;19;20085;-72
2023/11/13 00:25:26;;;;;;;37.47;15.90;;;;;;;3.79;100.00;100726.00;6079839;19;20519;-72
2023/11/13 00:27:31;;;;;;;35.88;16.20;;;;;;;3.79;100.00;100730.31;6074214;19;20011;-72
2023/11/13 00:29:36;;;;;;;38.47;17.00;;;;;;;3.78;100.00;100731.19;6076942;19;20136;-72
2023/11/13 00:31:41;;;;;;;48.53;18.63;;;;;;;3.81;100.00;100716.41;6079737;19;20020;-76
2023/11/13 00:33:47;;;;;;;29.67;13.50;;;;;;;3.86;100.00;100711.16;6079885;19;20074;-76
2023/11/13 00:35:52;;;;;;;34.05;16.08;;;;;;;3.85;100.00;100712.91;6078699;19;20006;-76
2023/11/13 00:37:59;;;;;;;37.08;16.85;;;;;;;3.86;100.00;100706.78;6079804;19;20023;-76
2023/11/13 00:40:04;;;;;;;47.85;16.00;;;;;;;3.87;100.00;100699.84;6070418;19;20029;-74
2023/11/13 00:42:13;;;;;;;42.05;16.63;;;;;;;3.89;100.00;100693.75;6076574;19;20015;-71
2023/11/13 00:44:15;;;;;;;35.75;16.00;;;;;;;3.92;100.00;100695.44;6072894;19;20196;-71
2023/11/13 00:46:21;;;;;;;43.42;16.33;;;;;;;3.95;100.00;100683.28;6076383;19;20006;-75
2023/11/13 00:48:27;;;;;;;41.95;17.77;;;;;;;3.98;100.00;100677.16;6076847;19;20022;-74
2023/11/13 00:50:29;;;;;;;42.38;18.15;;;;;;;3.95;100.00;100685.03;6075708;19;20147;-75
2023/11/13 00:52:34;;;;;;;35.65;16.75;;;;;;;3.92;100.00;100685.94;6073798;19;20053;-75
2023/11/13 00:54:41;;;;;;;39.80;16.90;;;;;;;3.94;100.00;100680.69;6075853;19;20015;-77
2023/11/13 00:56:46;;;;;;;38.22;16.23;;;;;;;3.94;100.00;100676.34;6075955;19;20018;-76
2023/11/13 00:58:54;;;;;;;34.42;16.00;;;;;;;3.96;100.00;100681.53;6076640;19;21843;-75
2023/11/13 01:00:59;;;;;;;36.33;15.32;;;;;;;3.96;100.00;100687.56;6073487;19;20003;-75
2023/11/13 01:03:04;;;;;;;39.25;16.42;;;;;;;3.96;100.00;100671.97;6076426;19;20443;-76
2023/11/13 01:05:11;;;;;;;29.52;15.88;;;;;;;4.02;100.00;100671.03;6079292;19;20026;-72
2023/11/13 01:07:18;;;;;;;35.05;14.82;;;;;;;4.05;100.00;100662.31;6079925;19;20010;-75
2023/11/13 01:09:23;;;;;;;37.15;15.57;;;;;;;4.09;100.00;100664.84;6082473;19;20014;-76
2023/11/13 01:11:28;;;;;;;33.13;16.45;;;;;;;4.13;100.00;100666.53;6084137;19;20020;-77
2023/11/13 01:13:36;;;;;;;35.13;16.05;;;;;;;4.17;100.00;100667.31;6083023;19;20118;-76
2023/11/13 01:15:44;;;;;;;43.75;17.27;;;;;;;4.16;100.00;100671.66;6083427;19;20014;-75
2023/11/13 01:17:50;;;;;;;31.38;14.38;;;;;;;4.17;100.00;100669.91;6078376;19;20014;-72
2023/11/13 01:19:52;;;;;;;34.38;15.80;;;;;;;4.21;100.00;100679.38;6081855;19;20019;-72
2023/11/13 01:21:58;;;;;;;34.47;16.63;;;;;;;4.21;100.00;100679.38;6080483;19;19998;-72
2023/11/13 01:24:02;;;;;;;33.20;15.30;;;;;;;4.24;100.00;100674.13;6080601;19;20047;-76
2023/11/13 01:26:08;;;;;;;36.55;17.52;;;;;;;4.27;100.00;100679.28;6083784;19;20002;-77
2023/11/13 01:28:13;;;;;;;37.85;18.40;;;;;;;4.27;100.00;100675.84;6083192;19;20007;-74
2023/11/13 01:30:17;;;;;;;32.33;14.80;;;;;;;4.29;100.00;100669.72;6083832;19;20050;-76
2023/11/13 01:32:25;;;;;;;41.22;16.77;;;;;;;4.28;100.00;100674.94;6081837;19;20091;-72
2023/11/13 01:34:27;;;;;;;39.22;16.98;;;;;;;4.30;100.00;100668.81;6079315;19;20014;-72
2023/11/13 01:36:33;;;;;;;34.30;15.07;;;;;;;4.33;100.00;100673.13;6081254;19;21341;-74
2023/11/13 01:38:38;;;;;;;35.63;15.88;;;;;;;4.31;100.00;100669.69;6083383;19;20023;-75
2023/11/13 01:40:43;;;;;;;36.30;16.73;;;;;;;4.30;100.00;100678.38;6082926;19;20015;-75
2023/11/13 01:42:47;;;;;;;35.30;15.70;;;;;;;4.27;100.00;100674.09;6076903;19;20020;-71
2023/11/13 01:44:55;;;;;;;33.03;15.18;;;;;;;4.33;100.00;100668.75;6081840;19;20022;-76
2023/11/13 01:47:01;;;;;;;38.00;15.20;;;;;;;4.32;100.00;100667.06;6083942;19;20345;-76
2023/11/13 01:49:09;;;;;;;31.17;15.93;;;;;;;4.30;100.00;100676.63;6080592;19;20400;-76
2023/11/13 01:51:14;;;;;;;31.83;15.18;;;;;;;4.31;100.00;100674.88;6081501;19;20511;-76
2023/11/13 01:53:23;;;;;;;35.85;16.05;;;;;;;4.31;100.00;100670.53;6079281;19;20808;-76
2023/11/13 01:55:29;;;;;;;32.28;15.75;;;;;;;4.32;100.00;100661.84;6081333;19;20474;-76
2023/11/13 01:57:36;;;;;;;30.73;13.63;;;;;;;4.39;100.00;100658.25;6079296;19;20011;-76
2023/11/13 01:59:43;;;;;;;33.85;15.05;;;;;;;4.45;100.00;100659.00;6082093;19;20035;-75
2023/11/13 02:01:49;;;;;;;35.30;14.55;;;;;;;4.53;100.00;100645.00;6079729;19;20445;-76
2023/11/13 02:03:55;;;;;;;31.52;15.38;;;;;;;4.51;100.00;100649.38;6080814;19;19999;-76
2023/11/13 02:06:03;;;;;;;31.85;15.45;;;;;;;4.54;100.00;100641.50;6083994;19;20421;-75
2023/11/13 02:08:06;;;;;;;32.72;15.25;;;;;;;4.55;100.00;100635.41;6077621;19;19999;-75
2023/11/13 02:10:13;;;;;;;41.67;14.60;;;;;;;4.59;100.00;100636.22;6080006;19;20037;-72
2023/11/13 02:12:19;;;;;;;34.20;13.98;;;;;;;4.61;100.00;100637.06;6078038;19;20402;-73
2023/11/13 02:14:22;;;;;;;32.10;14.52;;;;;;;4.68;100.00;100641.22;6082055;19;21152;-71
2023/11/13 02:16:27;;;;;;;34.42;15.88;;;;;;;4.74;100.00;100646.34;6078741;19;20010;-71
2023/11/13 02:18:37;;;;;;;35.45;14.90;;;;;;;4.74;100.00;100637.63;6076961;19;20020;-72
2023/11/13 02:20:42;;;;;;;41.83;16.60;;;;;;;4.81;100.00;100621.88;6077312;19;20019;-72
2023/11/13 02:22:50;;;;;;;36.55;14.90;;;;;;;4.88;100.00;100612.22;6076820;19;20006;-75
2023/11/13 02:25:01;;;;;;;37.70;15.77;;;;;;;4.89;100.00;100608.69;6079548;19;20013;-75
2023/11/13 02:27:08;;;;;;;36.83;15.65;;;;;;;4.93;100.00;100599.94;6077646;19;20416;-71
2023/11/13 02:29:14;;;;;;;29.02;15.45;;;;;;;4.96;100.00;100592.06;6076823;19;20023;-72
2023/11/13 02:31:16;;;;;;;34.88;15.50;;;;;;;5.02;100.00;100585.88;6079389;19;20712;-76
2023/11/13 02:33:21;;;;;;;;;;;;;;;5.04;100.00;100579.72;6083047;19;20478;-75
2023/11/13 02:35:23;;;;;;;28.60;14.38;;;;;;;5.06;100.00;100592.75;6081358;19;19918;-75
2023/11/13 02:37:29;;;;;;;30.00;13.55;;;;;;;5.10;100.00;100580.50;6081822;19;20024;-75
2023/11/13 02:39:34;;;;;;;29.80;13.57;;;;;;;5.10;100.00;100594.38;6081976;19;20007;-75
2023/11/13 02:41:42;;;;;;;41.53;15.65;;;;;;;5.08;100.00;100601.34;6078431;19;20013;-72
2023/11/13 02:43:47;;;;;;;42.88;16.75;;;;;;;5.12;100.00;100599.56;6076676;19;20016;-73
2023/11/13 02:45:52;;;;;;;31.27;14.23;;;;;;;5.12;100.00;100608.22;6078564;19;20007;-77
2023/11/13 02:47:58;;;;;;;29.27;14.50;;;;;;;5.20;100.00;100608.91;6081081;19;20499;-72
2023/11/13 02:50:03;;;;;;;32.83;13.95;;;;;;;5.19;100.00;100612.41;6081401;19;20506;-77
2023/11/13 02:52:08;;;;;;;29.92;15.80;;;;;;;5.28;100.00;100622.63;6079056;19;20026;-71
2023/11/13 02:54:13;;;;;;;32.42;14.40;;;;;;;5.27;100.00;100626.13;6077094;19;20014;-75
2023/11/13 02:56:21;;;;;;;39.13;14.68;;;;;;;5.32;100.00;100631.25;6079124;19;20042;-71
2023/11/13 02:58:30;;;;;;;39.25;15.35;;;;;;;5.35;100.00;100625.97;6074540;19;20003;-72
2023/11/13 03:00:33;;;;;;;31.27;14.18;;;;;;;5.34;100.00;100624.22;6078092;19;20483;-76
2023/11/13 03:02:38;;;;;;;31.58;14.68;;;;;;;5.39;100.00;100631.94;6082438;19;20010;-75
2023/11/13 03:04:43;;;;;;;33.20;14.57;;;;;;;5.40;100.00;100633.69;6083599;19;20238;-75
2023/11/13 03:06:51;;;;;;;33.20;14.95;;;;;;;5.43;100.00;100641.41;6084872;19;20121;-76
2023/11/13 03:08:56;;;;;;;30.35;13.32;;;;;;;5.47;100.00;100643.91;6086560;19;20010;-76
2023/11/13 03:11:01;;;;;;;28.15;13.25;;;;;;;5.52;100.00;100646.41;6086979;19;20363;-76
2023/11/13 03:13:06;;;;;;;30.15;14.40;;;;;;;5.58;100.00;100642.81;6090605;19;20007;-75
2023/11/13 03:15:13;;;;;;;30.23;14.38;;;;;;;5.53;100.00;100635.13;6090295;19;20051;-76
2023/11/13 03:17:16;;;;;;;26.52;13.48;;;;;;;5.60;100.00;100623.63;6089528;19;20020;-75
2023/11/13 03:19:21;;;;;;;;;;;;;;;5.62;100.00;100619.25;6089101;19;20006;-75
2023/11/13 03:21:26;;;;;;;32.10;12.43;;;;;;;5.69;100.00;100610.38;6089733;19;20324;-75
2023/11/13 03:23:31;;;;;;;29.27;13.73;;;;;;;5.70;100.00;100606.03;6087911;19;20033;-75
2023/11/13 03:25:36;;;;;;;30.25;13.60;;;;;;;5.68;100.00;100608.66;6084137;19;20016;-75
2023/11/13 03:27:41;;;;;;;31.63;13.80;;;;;;;5.64;100.00;100601.81;6083107;19;20017;-76
2023/11/13 03:29:46;;;;;;;28.20;13.65;;;;;;;5.67;100.00;100604.34;6082883;19;21272;-76
2023/11/13 03:31:54;;;;;;;31.58;14.25;;;;;;;5.68;100.00;100603.44;6080250;19;20488;-76
2023/11/13 03:33:57;;;;;;;33.45;14.50;;;;;;;5.72;100.00;100615.53;6079666;19;20225;-75
2023/11/13 03:36:03;;;;;;;24.92;12.95;;;;;;;5.70;100.00;100617.31;6078997;19;20102;-72
2023/11/13 03:38:09;;;;;;;31.10;14.70;;;;;;;5.76;100.00;100613.69;6077602;19;20038;-73
2023/11/13 03:40:14;;;;;;;28.35;13.57;;;;;;;5.77;100.00;100612.81;6077836;19;20095;-75
2023/11/13 03:42:21;;;;;;;33.95;13.38;;;;;;;5.76;100.00;100615.44;6078536;19;20006;-72
2023/11/13 03:44:26;;;;;;;26.33;13.13;;;;;;;5.80;100.00;100611.88;6070917;19;20045;-74
2023/11/13 03:46:31;;;;;;;36.75;14.48;;;;;;;5.83;100.00;100607.44;6079118;19;20102;-75
2023/11/13 03:48:39;;;;;;;25.63;13.50;;;;;;;5.85;100.00;100610.03;6077359;19;20247;-73
2023/11/13 03:50:44;;;;;;;29.63;13.38;;;;;;;5.89;100.00;100606.44;6074478;19;20322;-72
2023/11/13 03:52:49;;;;;;;32.75;15.52;;;;;;;5.86;100.00;100601.28;6077034;19;20081;-73
2023/11/13 03:54:52;;;;;;;30.95;13.95;;;;;;;5.88;100.00;100581.25;6076087;19;20016;-77
2023/11/13 03:56:57;;;;;;;34.70;13.98;;;;;;;5.87;100.00;100575.19;6078007;19;20407;-76
2023/11/13 03:59:02;;;;;;;32.85;15.77;;;;;;;5.87;100.00;100567.38;6076901;19;20035;-74
2023/11/13 04:01:10;;;;;;;27.58;13.25;;;;;;;5.82;100.00;100568.34;6072810;19;20336;-72
2023/11/13 04:03:15;;;;;;;32.13;14.15;;;;;;;5.80;100.00;100557.97;6070240;19;20010;-72
2023/11/13 04:05:23;;;;;;;32.95;14.15;;;;;;;5.86;100.00;100547.38;6076874;19;20514;-76
2023/11/13 04:07:28;;;;;;;36.88;15.10;;;;;;;5.91;100.00;100534.22;6080518;19;20002;-75
2023/11/13 04:09:35;;;;;;;32.00;14.02;;;;;;;5.88;100.00;100526.50;6079852;19;20058;-76
2023/11/13 04:11:42;;;;;;;31.83;15.40;;;;;;;5.83;100.00;100516.19;6080033;19;20034;-72
2023/11/13 04:13:47;;;;;;;32.58;15.10;;;;;;;5.87;100.00;100512.59;6078554;19;20570;-75
2023/11/13 04:15:50;;;;;;;34.72;15.45;;;;;;;5.92;100.00;100504.63;6078684;19;20457;-72
2023/11/13 04:17:55;;;;;;;40.83;16.63;;;;;;;5.86;100.00;100499.59;6078291;19;20010;-71
2023/11/13 04:20:00;;;;;;;43.63;17.42;;;;;;;5.86;100.00;100494.38;6077634;19;20626;-74
2023/11/13 04:22:10;;;;;;;40.13;17.27;;;;;;;5.87;100.00;100478.72;6075299;19;20034;-74
2023/11/13 04:24:15;;;;;;;33.45;13.77;;;;;;;5.91;100.00;100482.06;6078953;19;20350;-74
2023/11/13 04:26:20;;;;;;;41.50;16.83;;;;;;;5.92;100.00;100487.25;6078987;19;20085;-76
2023/11/13 04:28:30;;;;;;;45.45;19.50;;;;;;;5.92;100.00;100504.63;6079770;19;20011;-74
2023/11/13 04:30:36;;;;;;;36.47;17.58;;;;;;;5.93;100.00;100504.63;5996423;19;2004924;-73
2023/11/13 04:32:45;;;;;;;41.67;16.55;;;;;;;5.99;100.00;100497.53;6076723;19;20716;-76
2023/11/13 04:34:50;;;;;;;42.15;18.00;;;;;;;5.99;100.00;100498.41;6078039;19;20078;-76
2023/11/13 04:36:57;;;;;;;47.88;17.33;;;;;;;6.04;100.00;100485.25;6079858;19;20466;-77
2023/11/13 04:39:09;;;;;;;43.08;16.58;;;;;;;6.05;100.00;100482.56;6075185;19;20577;-72
2023/11/13 04:41:16;;;;;;;38.00;17.42;;;;;;;6.09;100.00;100479.00;6083835;19;20810;-71
2023/11/13 04:43:19;;;;;;;54.90;19.70;;;;;;;6.10;100.00;100469.41;6082381;19;21269;-73
2023/11/13 04:45:24;;;;;;;50.00;16.80;;;;;;;6.14;100.00;100465.81;6084305;19;20017;-71
2023/11/13 04:47:30;;;;;;;42.15;15.90;;;;;;;6.15;100.00;100470.13;6085559;19;20464;-71
2023/11/13 04:49:35;;;;;;;42.22;17.40;;;;;;;6.23;100.00;100464.69;6084345;19;20030;-71
2023/11/13 04:51:43;;;;;;;48.33;17.92;;;;;;;6.30;100.00;100461.03;6084013;19;20021;-74
2023/11/13 04:53:50;;;;;;;54.17;16.98;;;;;;;6.28;100.00;100458.44;6084484;19;20510;-74
2023/11/13 04:56:01;;;;;;;46.10;18.23;;;;;;;6.27;100.00;100455.91;6086436;19;20042;-76
2023/11/13 04:58:06;;;;;;;40.20;16.45;;;;;;;6.32;100.00;100459.25;6089726;19;20011;-75
2023/11/13 05:00:13;;;;;;;46.53;16.20;;;;;;;6.31;100.00;100460.97;6086438;19;20089;-71
2023/11/13 05:02:18;;;;;;;45.47;18.15;;;;;;;6.30;100.00;100451.44;6090256;19;20390;-75
2023/11/13 05:04:21;;;;;;;38.42;16.23;;;;;;;6.31;100.00;100449.69;6089449;19;20114;-75
2023/11/13 05:06:26;;;;;;;47.78;17.42;;;;;;;6.32;100.00;100452.25;6085834;19;20433;-72
2023/11/13 05:08:33;;;;;;;45.65;17.85;;;;;;;6.36;100.00;100442.56;6085430;19;20011;-72
2023/11/13 05:10:39;;;;;;;43.60;17.00;;;;;;;6.36;100.00;100460.84;6084586;19;20049;-74
2023/11/13 05:12:47;;;;;;;58.28;17.00;;;;;;;6.41;100.00;100453.72;6090483;19;20014;-75
2023/11/13 05:14:52;;;;;;;50.58;18.30;;;;;;;6.43;100.00;100457.16;6088060;19;20024;-75
2023/11/13 05:16:55;;;;;;;49.92;18.60;;;;;;;6.45;100.00;100455.38;6086161;19;20021;-76
2023/11/13 05:19:03;;;;;;;53.45;20.98;;;;;;;6.42;100.00;100460.66;6087003;19;20008;-76
2023/11/13 05:21:06;;;;;;;47.45;17.70;;;;;;;6.44;100.00;100453.63;6083112;19;20049;-74
2023/11/13 05:23:12;;;;;;;49.88;19.13;;;;;;;6.49;100.00;100453.50;6084444;19;20034;-71
2023/11/13 05:25:18;;;;;;;55.05;17.38;;;;;;;6.47;100.00;100458.75;6082493;19;20109;-75
2023/11/13 05:27:23;;;;;;;51.75;18.58;;;;;;;6.55;100.00;100443.72;6085472;19;20014;-74
2023/11/13 05:29:31;;;;;;;51.92;18.52;;;;;;;6.57;100.00;100441.06;6083497;19;20700;-76
2023/11/13 05:31:36;;;;;;;49.60;19.40;;;;;;;6.57;100.00;100441.06;6081869;19;20098;-76
2023/11/13 05:33:42;;;;;;;45.95;17.10;;;;;;;6.57;100.00;100447.16;6084592;19;20553;-76
2023/11/13 05:35:47;;;;;;;49.45;19.27;;;;;;;6.56;100.00;100448.06;6083781;19;20046;-75
2023/11/13 05:37:52;;;;;;;40.00;17.58;;;;;;;6.62;100.00;100438.34;6083310;19;20257;-72
2023/11/13 05:40:01;;;;;;;54.70;16.90;;;;;;;6.59;100.00;100434.06;6079012;19;20097;-72
2023/11/13 05:42:07;;;;;;;53.95;17.77;;;;;;;6.67;100.00;100428.59;6081834;19;20002;-74
2023/11/13 05:44:11;;;;;;;48.95;19.10;;;;;;;6.70;100.00;100423.28;6079530;19;20454;-72
2023/11/13 05:46:20;;;;;;;47.33;17.25;;;;;;;6.72;100.00;100422.34;6080640;19;20534;-72
2023/11/13 05:48:27;;;;;;;52.13;17.88;;;;;;;6.70;100.00;100405.84;6079935;19;20005;-71
2023/11/13 05:50:36;;;;;;;56.65;19.52;;;;;;;6.67;100.00;100405.09;6079847;19;20062;-75
2023/11/13 05:52:42;;;;;;;54.03;17.50;;;;;;;6.66;100.00;100406.88;6081411;19;20354;-71
2023/11/13 05:54:47;;;;;;;60.65;18.35;;;;;;;6.67;100.00;100410.31;6082118;19;20015;-73
2023/11/13 05:56:52;;;;;;;48.20;16.98;;;;;;;6.64;100.00;100410.44;6084425;19;20011;-76
2023/11/13 05:58:54;;;;;;;52.25;18.63;;;;;;;6.68;100.00;100412.88;6080245;19;20027;-75
2023/11/13 06:01:02;;;;;;;68.82;19.42;;;;;;;6.74;100.00;100409.22;6080324;19;20004;-73
2023/11/13 06:03:10;;;;;;;58.88;17.55;;;;;;;6.76;100.00;100408.25;6083021;19;20467;-72
2023/11/13 06:05:13;;;;;;;44.58;16.88;;;;;;;6.88;100.00;100398.34;6082129;19;20007;-71
2023/11/13 06:07:21;;;;;;;52.20;18.77;;;;;;;6.88;100.00;100406.19;6081749;19;20366;-74
2023/11/13 06:09:26;;;;;;;55.63;19.42;;;;;;;6.85;100.00;100398.44;6082167;19;20684;-73
2023/11/13 06:11:28;;;;;;;51.72;18.55;;;;;;;6.88;100.00;100393.97;6075450;19;20007;-74
2023/11/13 06:13:35;;;;;;;59.33;18.15;;;;;;;6.90;100.00;100392.16;6077613;19;20037;-75
2023/11/13 06:15:40;;;;;;;53.60;16.50;;;;;;;6.92;100.00;100385.13;6076741;19;20376;-75
2023/11/13 06:17:46;;;;;;;59.55;18.30;;;;;;;6.99;100.00;100391.84;6075954;19;20006;-75
2023/11/13 06:19:54;;;;;;;48.20;15.95;;;;;;;7.03;100.00;100385.63;6076967;19;20825;-71
2023/11/13 06:21:59;;;;;;;54.83;17.95;;;;;;;7.09;100.00;100396.78;6075157;19;20074;-71
2023/11/13 06:24:05;;;;;;;48.80;17.35;;;;;;;7.14;100.00;100381.81;6074563;19;20022;-71
2023/11/13 06:26:12;;;;;;;61.88;18.67;;;;;;;7.18;100.00;100384.25;6073616;19;20014;-72
2023/11/13 06:28:17;;;;;;;43.72;16.83;;;;;;;7.22;100.00;100369.34;6073741;19;20006;-71
2023/11/13 06:30:22;;;;;;;55.75;18.52;;;;;;;7.26;100.00;100373.53;6073647;19;20101;-77
2023/11/13 06:32:28;;;;;;;45.22;15.95;;;;;;;7.28;100.00;100370.88;6073765;19;20007;-72
2023/11/13 06:34:36;;;;;;;56.47;16.15;;;;;;;7.32;100.00;100368.13;6075409;19;20031;-76
2023/11/13 06:36:47;;;;;;;59.05;17.00;;;;;;;7.36;100.00;100361.88;6078266;19;20003;-73
2023/11/13 06:38:54;;;;;;;55.20;17.80;;;;;;;7.44;100.00;100367.66;5974529;19;2004713;-76
2023/11/13 06:41:02;;;;;;;49.83;15.60;;;;;;;7.50;100.00;100368.38;6074107;19;20010;-72
2023/11/13 06:43:05;;;;;;;57.05;18.88;;;;;;;7.55;100.00;100361.22;6076668;19;20002;-72
2023/11/13 06:45:12;;;;;;;62.17;17.67;;;;;;;7.57;100.00;100354.19;6074129;19;20009;-72
2023/11/13 06:47:17;;;;;;;56.28;15.75;;;;;;;7.58;100.00;100341.06;6075231;19;20022;-75
2023/11/13 06:49:22;;;;;;;58.42;17.05;;;;;;;7.64;100.00;100345.22;6068533;19;21705;-75
2023/11/13 06:51:27;;;;;;;45.17;15.35;;;;;;;7.63;100.00;100353.94;6071807;19;20043;-71
2023/11/13 06:53:32;;;;;;;53.83;17.10;;;;;;;7.67;100.00;100339.88;6073014;19;20015;-72
2023/11/13 06:55:38;;;;;;;53.55;15.95;;;;;;;7.76;100.00;100336.91;6077807;19;20007;-72
2023/11/13 06:57:43;;;;;;;48.05;15.18;;;;;;;7.75;100.00;100335.19;6075954;19;20041;-76
2023/11/13 06:59:47;;;;;;;46.58;14.60;;;;;;;7.82;100.00;100328.84;6076729;19;20003;-72
2023/11/13 07:01:52;;;;;;;50.88;17.98;;;;;;;7.84;100.00;100327.00;6074426;19;20379;-76
2023/11/13 07:03:57;;;;;;;48.25;16.15;;;;;;;7.88;100.00;100322.53;6078230;19;20002;-77
2023/11/13 07:06:03;;;;;;;50.83;15.10;;;;;;;7.93;100.00;100312.75;6075211;19;20800;-76
2023/11/13 07:08:09;;;;;;;52.08;15.63;;;;;;;7.92;100.00;100311.00;6076523;19;20038;-74
2023/11/13 07:10:18;;;;;;;50.78;16.48;;;;;;;7.98;100.00;100309.94;6075215;19;20013;-76
2023/11/13 07:12:24;;;;;;;59.53;18.48;;;;;;;8.00;100.00;100308.94;6075423;19;20006;-77
2023/11/13 07:14:31;;;;;;;92.32;20.33;;;;;;;8.06;100.00;100313.13;6075944;19;20113;-72
2023/11/13 07:16:37;;;;;;;45.33;15.95;;;;;;;8.07;100.00;100312.19;6075024;19;20010;-75
2023/11/13 07:18:42;;;;;;;49.13;15.82;;;;;;;8.10;100.00;100317.31;6075778;19;20044;-73
2023/11/13 07:20:47;;;;;;;68.55;19.20;;;;;;;8.11;100.00;100316.41;6075746;19;20014;-73
2023/11/13 07:22:53;;;;;;;59.33;18.60;;;;;;;8.16;100.00;100313.59;6076874;19;20452;-73
2023/11/13 07:25:01;;;;;;;47.80;16.83;;;;;;;8.18;100.00;100314.41;6072112;19;20027;-73
2023/11/13 07:27:09;;;;;;;57.13;18.05;;;;;;;8.26;100.00;100305.31;6073166;19;20018;-72
2023/11/13 07:29:14;;;;;;;52.58;17.92;;;;;;;8.22;100.00;100295.91;6074855;19;20009;-75
2023/11/13 07:31:19;;;;;;;53.67;16.55;;;;;;;8.30;100.00;100309.53;6073600;19;20015;-74
2023/11/13 07:33:24;;;;;;;51.40;16.48;;;;;;;8.38;100.00;100296.16;6075162;19;20006;-77
2023/11/13 07:35:29;;;;;;;60.92;17.33;;;;;;;8.38;100.00;100295.31;6078648;19;20460;-72
2023/11/13 07:37:34;;;;;;;54.75;20.10;;;;;;;8.40;100.00;100296.97;6074849;19;20006;-75
2023/11/13 07:39:39;;;;;;;63.53;19.48;;;;;;;8.49;100.00;100291.34;6075361;19;21622;-75
2023/11/13 07:41:44;;;;;;;56.67;16.85;;;;;;;8.55;100.00;100283.25;6076898;19;20006;-75
2023/11/13 07:43:56;;;;;;;50.88;16.70;;;;;;;8.55;100.00;100282.41;6075856;19;20022;-74
2023/11/13 07:46:01;;;;;;;52.80;16.80;;;;;;;8.63;100.00;100272.44;6078295;19;20002;-77
2023/11/13 07:48:07;;;;;;;54.30;17.98;;;;;;;8.63;100.00;100263.75;6078010;19;20010;-73
2023/11/13 07:50:14;;;;;;;48.88;17.83;;;;;;;8.68;100.00;100264.41;6074808;19;20321;-77
2023/11/13 07:52:16;;;;;;;54.30;16.65;;;;;;;8.71;100.00;100251.19;6074313;19;20014;-72
2023/11/13 07:54:21;;;;;;;54.40;16.00;;;;;;;8.75;100.00;100253.59;6077171;19;20002;-75
2023/11/13 07:56:26;;;;;;;54.80;19.48;;;;;;;8.79;100.00;100255.19;6076372;19;20120;-73
2023/11/13 07:58:31;;;;;;;46.97;16.75;;;;;;;8.85;100.00;100240.97;6075240;19;20006;-72
2023/11/13 08:00:39;;;;;;;52.60;16.95;;;;;;;8.93;100.00;100235.41;6075977;19;20010;-74
2023/11/13 08:02:42;;;;;;;49.30;16.67;;;;;;;8.93;100.00;100219.69;6075238;19;20027;-77
2023/11/13 08:04:47;;;;;;;47.10;16.42;;;;;;;9.04;100.00;100217.44;6075529;19;20006;-73
2023/11/13 08:06:50;;;;;;;45.42;16.00;;;;;;;9.06;100.00;100215.59;6073698;19;20037;-73
2023/11/13 08:08:55;;;;;;;58.53;15.65;;;;;;;9.12;100.00;100217.09;6075811;19;20371;-75
2023/11/13 08:11:00;;;;;;;52.80;17.90;;;;;;;9.10;100.00;100206.66;6068856;19;20400;-73
2023/11/13 08:13:03;;;;;;;50.80;17.00;;;;;;;9.13;100.00;100201.28;6075707;19;20516;-77
2023/11/13 08:15:12;;;;;;;56.65;18.05;;;;;;;9.14;100.00;100203.00;6072861;19;20350;-77
2023/11/13 08:17:19;;;;;;;53.00;15.93;;;;;;;9.19;100.00;100195.78;6074022;19;20015;-75
2023/11/13 08:19:24;;;;;;;59.17;18.33;;;;;;;9.14;100.00;100184.66;6074593;19;20018;-75
2023/11/13 08:21:30;;;;;;;62.13;18.13;;;;;;;9.17;100.00;100173.19;6073726;19;20467;-75
2023/11/13 08:23:32;;;;;;;52.22;18.75;;;;;;;9.15;100.00;100168.00;6078020;19;20031;-74
2023/11/13 08:25:38;;;;;;;57.95;16.52;;;;;;;9.19;100.00;100159.09;6076463;19;20011;-74
2023/11/13 08:27:44;;;;;;;56.03;17.30;;;;;;;9.22;100.00;100158.94;6076269;19;20049;-74
2023/11/13 08:29:52;;;;;;;43.65;15.80;;;;;;;9.23;100.00;100147.53;6073822;19;20014;-74
2023/11/13 08:31:57;;;;;;;56.33;15.90;;;;;;;9.23;100.00;100144.06;6075689;19;20023;-73
2023/11/13 08:34:02;;;;;;;40.45;14.30;;;;;;;9.24;100.00;100137.88;6079138;19;20680;-74
2023/11/13 08:36:11;;;;;;;42.25;15.75;;;;;;;9.23;100.00;100144.91;6077775;19;20074;-75
2023/11/13 08:38:18;;;;;;;47.50;14.27;;;;;;;9.27;100.00;100129.91;6076716;19;20013;-73
2023/11/13 08:40:26;;;;;;;39.85;14.07;;;;;;;9.23;100.00;100129.19;6075259;19;20033;-74
2023/11/13 08:42:31;;;;;;;36.72;11.85;;;;;;;9.28;100.00;100121.09;6075719;19;20017;-73
2023/11/13 08:44:36;;;;;;;42.28;11.95;;;;;;;9.29;100.00;100111.47;6075662;19;20023;-74
2023/11/13 08:46:41;;;;;;;32.85;10.63;;;;;;;9.28;100.00;100112.41;6072830;19;20030;-73
2023/11/13 08:48:44;;;;;;;33.10;10.00;;;;;;;9.29;100.00;100106.22;6074319;19;20017;-71
2023/11/13 08:50:53;;;;;;;40.25;9.95;;;;;;;9.30;100.00;100100.06;6073584;19;20042;-73
2023/11/13 08:52:59;;;;;;;34.75;9.88;;;;;;;9.30;100.00;100094.81;6072850;19;20019;-74
2023/11/13 08:55:05;;;;;;;27.95;8.68;;;;;;;9.31;100.00;100096.50;6067058;19;20007;-73
2023/11/13 08:57:14;;;;;;;28.80;8.43;;;;;;;9.31;100.00;100101.75;6076078;19;20082;-75
2023/11/13 08:59:19;;;;;;;29.85;8.32;;;;;;;9.30;100.00;100093.06;6073758;19;20340;-74
2023/11/13 09:01:25;;;;;;;24.25;8.07;;;;;;;9.35;100.00;100090.22;6075686;19;20953;-74
2023/11/13 09:03:29;;;;;;;20.23;7.18;;;;;;;9.33;100.00;100071.09;6074433;19;20579;-77
2023/11/13 09:05:34;;;;;;;25.25;6.65;;;;;;;9.30;100.00;100053.72;6074484;19;20381;-76
2023/11/13 09:07:43;;;;;;;19.58;6.45;;;;;;;9.32;100.00;100053.63;6073900;19;20006;-73
2023/11/13 09:09:54;;;;;;;19.35;7.25;;;;;;;9.30;100.00;100045.84;6074520;19;20011;-74
2023/11/13 09:12:01;;;;;;;19.73;6.13;;;;;;;9.31;100.00;100051.94;6075254;19;20013;-75
2023/11/13 09:14:09;;;;;;;21.25;6.65;;;;;;;9.27;100.00;100051.25;6073655;19;20003;-76
2023/11/13 09:16:14;;;;;;;22.55;6.60;;;;;;;9.26;100.00;100052.16;6075846;19;20472;-73
2023/11/13 09:18:17;;;;;;;20.00;6.20;;;;;;;9.22;100.00;100038.34;6073404;19;20371;-72
2023/11/13 09:20:24;;;;;;;14.25;5.40;;;;;;;9.22;100.00;100030.50;6072548;19;20006;-72
2023/11/13 09:22:31;;;;;;;13.52;4.97;;;;;;;9.18;100.00;100025.47;6072906;19;20086;-72
2023/11/13 09:24:41;;;;;;;13.82;4.15;;;;;;;9.22;100.00;100009.53;6073049;19;20010;-73
2023/11/13 09:26:50;;;;;;;14.50;3.95;;;;;;;9.25;100.00;99986.72;6078465;19;20038;-72
2023/11/13 09:28:55;;;;;;;9.75;4.15;;;;;;;9.22;100.00;99995.56;6078690;19;20037;-73
2023/11/13 09:31:00;;;;;;;8.30;2.58;;;;;;;9.16;100.00;99991.47;6079128;19;20018;-72